Time;durP1;ratioP1;P1;durP2;ratioP2;P2;SDS_P1;SDS_P2;PMS_P1;PMS_P2;Temp;Humidity;BMP_temperature;BMP_pressure;BME280_temperature;BME280_humidity;BME280_pressure;Samples;Min_cycle;Max_cycle;Signal;HPM_P1;HPM_P2
2024/01/12 00:00:29;;;;;;;100.47;93.03;;;-0.40;99.90;;;;;;5052118;28;20832;-65
2024/01/12 00:02:56;;;;;;;151.98;142.23;;;-0.50;99.90;;;;;;5052115;28;20598;-66
2024/01/12 00:05:23;;;;;;;111.05;103.63;;;-0.40;99.90;;;;;;5052029;28;20294;-67
2024/01/12 00:07:50;;;;;;;112.90;105.10;;;-0.50;99.90;;;;;;5052216;28;20197;-66
2024/01/12 00:10:19;;;;;;;105.37;97.23;;;-0.50;99.90;;;;;;5052100;28;20450;-66
2024/01/12 00:12:46;;;;;;;96.40;88.90;;;-0.50;99.90;;;;;;5052972;28;20473;-66
2024/01/12 00:15:12;;;;;;;189.67;179.43;;;-0.40;99.90;;;;;;5051965;28;20203;-66
2024/01/12 00:17:39;;;;;;;174.15;163.98;;;-0.50;99.90;;;;;;5052028;28;20452;-66
2024/01/12 00:20:07;;;;;;;211.23;200.20;;;-0.50;99.90;;;;;;5052040;28;20742;-66
2024/01/12 00:22:34;;;;;;;231.57;219.87;;;-0.50;99.90;;;;;;5051854;28;20227;-65
2024/01/12 00:25:01;;;;;;;281.13;267.07;;;-0.50;99.90;;;;;;5052036;28;20464;-66
2024/01/12 00:27:29;;;;;;;337.00;319.10;;;-0.40;99.90;;;;;;5051723;28;20460;-66
2024/01/12 00:29:56;;;;;;;319.75;303.10;;;-0.50;99.90;;;;;;5051802;28;20455;-66
2024/01/12 00:32:23;;;;;;;337.58;319.48;;;-0.40;99.90;;;;;;5051622;28;20220;-65
2024/01/12 00:34:49;;;;;;;299.30;284.33;;;-0.50;99.90;;;;;;5051753;28;20287;-65
2024/01/12 00:37:16;;;;;;;319.70;304.45;;;-0.40;99.90;;;;;;5051445;28;20453;-66
2024/01/12 00:39:43;;;;;;;326.53;310.30;;;-0.50;99.90;;;;;;5051653;28;20208;-66
2024/01/12 00:42:10;;;;;;;334.43;318.00;;;-0.40;99.90;;;;;;5051735;28;20466;-66
2024/01/12 00:44:38;;;;;;;401.25;380.42;;;-0.40;99.90;;;;;;5054883;28;20467;-66
2024/01/12 00:47:05;;;;;;;389.10;369.17;;;-0.50;99.90;;;;;;5063758;28;20204;-65
2024/01/12 00:49:32;;;;;;;328.38;311.42;;;-0.40;99.90;;;;;;5054416;28;20204;-65
2024/01/12 00:51:59;;;;;;;342.00;325.38;;;-0.40;99.90;;;;;;5071545;28;20231;-66
2024/01/12 00:54:26;;;;;;;354.55;336.75;;;-0.40;99.90;;;;;;5061750;28;20220;-66
2024/01/12 00:56:53;;;;;;;369.17;349.40;;;-0.40;99.90;;;;;;5051339;28;20210;-66
2024/01/12 00:59:22;;;;;;;385.07;365.37;;;-0.40;99.90;;;;;;5051618;28;20479;-66
2024/01/12 01:01:53;;;;;;;385.80;366.50;;;-0.40;99.90;;;;;;5051400;28;20446;-65
2024/01/12 01:04:20;;;;;;;379.87;359.93;;;-0.40;99.90;;;;;;5051562;28;20965;-66
2024/01/12 01:06:47;;;;;;;401.13;380.27;;;-0.40;99.90;;;;;;5051397;28;20835;-66
2024/01/12 01:09:14;;;;;;;412.37;390.07;;;-0.40;99.90;;;;;;5052714;28;20454;-65
2024/01/12 01:11:41;;;;;;;433.27;409.47;;;-0.40;99.90;;;;;;5055015;28;20489;-65
2024/01/12 01:14:08;;;;;;;379.43;359.63;;;-0.40;99.90;;;;;;5055588;28;20451;-65
2024/01/12 01:16:35;;;;;;;408.73;386.88;;;-0.40;99.90;;;;;;5055010;28;20453;-66
2024/01/12 01:19:03;;;;;;;442.33;418.03;;;-0.40;99.90;;;;;;5055017;28;20196;-64
2024/01/12 01:21:30;;;;;;;440.30;416.45;;;-0.40;99.90;;;;;;5055107;28;20481;-65
2024/01/12 01:23:57;;;;;;;435.90;411.80;;;-0.40;99.90;;;;;;5054827;28;20223;-66
2024/01/12 01:26:23;;;;;;;437.03;412.87;;;-0.40;99.90;;;;;;5054689;28;21054;-65
2024/01/12 01:28:50;;;;;;;445.40;420.70;;;-0.30;99.90;;;;;;5055094;28;20508;-66
2024/01/12 01:31:17;;;;;;;449.03;423.53;;;-0.30;99.90;;;;;;5054858;28;20485;-66
2024/01/12 01:33:44;;;;;;;463.00;436.10;;;-0.30;99.90;;;;;;5054890;28;20477;-65
2024/01/12 01:36:12;;;;;;;446.53;421.13;;;-0.30;99.90;;;;;;5054641;28;20447;-65
2024/01/12 01:38:39;;;;;;;450.30;425.13;;;-0.30;99.90;;;;;;5054528;28;20450;-66
2024/01/12 01:41:05;;;;;;;392.90;372.13;;;-0.30;99.90;;;;;;5054757;28;20453;-66
2024/01/12 01:43:32;;;;;;;392.27;371.90;;;-0.30;99.90;;;;;;5054766;28;20215;-66
2024/01/12 01:46:00;;;;;;;392.85;372.20;;;-0.30;99.90;;;;;;5054742;28;20454;-65
2024/01/12 01:48:26;;;;;;;431.15;407.65;;;-0.30;99.90;;;;;;5054373;28;20200;-65
2024/01/12 01:50:54;;;;;;;407.73;385.03;;;-0.30;99.90;;;;;;5054425;28;20196;-65
2024/01/12 01:53:23;;;;;;;432.53;407.87;;;-0.30;99.90;;;;;;5054004;28;20479;-64
2024/01/12 01:55:50;;;;;;;414.95;391.80;;;-0.30;99.90;;;;;;5054550;28;20451;-66
2024/01/12 01:58:17;;;;;;;423.10;398.93;;;-0.30;99.90;;;;;;5054302;28;20592;-65
2024/01/12 02:00:45;;;;;;;462.30;435.23;;;-0.30;99.90;;;;;;5054410;28;20447;-66
2024/01/12 02:03:16;;;;;;;447.52;421.17;;;-0.20;99.90;;;;;;5054540;28;20470;-66
2024/01/12 02:05:44;;;;;;;459.10;430.23;;;-0.20;99.90;;;;;;5046368;28;20581;-66
2024/01/12 02:08:11;;;;;;;484.27;452.10;;;-0.20;99.90;;;;;;5053961;28;20465;-66
2024/01/12 02:10:39;;;;;;;468.20;440.33;;;-0.20;99.90;;;;;;5054207;28;20451;-65
2024/01/12 02:13:06;;;;;;;460.05;431.45;;;-0.20;99.90;;;;;;5054162;28;20497;-66
2024/01/12 02:15:33;;;;;;;478.07;446.93;;;-0.20;99.90;;;;;;5054128;28;20588;-66
2024/01/12 02:18:00;;;;;;;508.20;471.80;;;-0.20;99.90;;;;;;5053821;28;20458;-65
2024/01/12 02:20:27;;;;;;;497.33;463.83;;;-0.20;99.90;;;;;;5053157;28;20484;-66
2024/01/12 02:22:55;;;;;;;494.77;462.88;;;-0.20;99.90;;;;;;5054054;28;20472;-66
2024/01/12 02:25:22;;;;;;;500.37;467.57;;;-0.20;99.90;;;;;;5054102;28;20206;-65
2024/01/12 02:27:49;;;;;;;530.53;494.03;;;-0.20;99.90;;;;;;5053708;28;20447;-65
2024/01/12 02:30:16;;;;;;;499.93;466.53;;;-0.10;99.90;;;;;;5053781;28;20536;-65
2024/01/12 02:32:43;;;;;;;496.73;464.87;;;-0.20;99.90;;;;;;5053500;28;20507;-65
2024/01/12 02:35:10;;;;;;;515.13;480.95;;;-0.10;99.90;;;;;;5053696;28;20457;-66
2024/01/12 02:37:37;;;;;;;542.00;504.95;;;-0.10;99.90;;;;;;5054257;28;20204;-66
2024/01/12 02:40:06;;;;;;;551.63;512.87;;;-0.10;99.90;;;;;;5053501;28;20206;-65
2024/01/12 02:42:33;;;;;;;542.28;503.80;;;-0.10;99.90;;;;;;5053460;28;20843;-66
2024/01/12 02:45:00;;;;;;;535.53;499.03;;;-0.10;99.90;;;;;;5054455;28;20219;-66
2024/01/12 02:47:27;;;;;;;527.90;491.75;;;-0.10;99.90;;;;;;5054055;28;20811;-66
2024/01/12 02:49:53;;;;;;;533.03;496.03;;;-0.10;99.90;;;;;;5053462;28;20230;-65
2024/01/12 02:52:20;;;;;;;510.83;477.00;;;-0.10;99.90;;;;;;5053155;28;21036;-66
2024/01/12 02:54:47;;;;;;;517.87;482.83;;;-0.10;99.90;;;;;;5053421;28;20456;-66
2024/01/12 02:57:15;;;;;;;519.35;483.65;;;-0.10;99.90;;;;;;5053536;28;20516;-65
2024/01/12 02:59:42;;;;;;;524.03;488.00;;;-0.10;99.90;;;;;;5045359;28;20207;-65
2024/01/12 03:02:09;;;;;;;524.50;489.70;;;-0.10;99.90;;;;;;5053251;28;20213;-65
2024/01/12 03:04:35;;;;;;;514.90;481.30;;;-0.10;99.90;;;;;;5053438;28;20455;-66
2024/01/12 03:07:02;;;;;;;541.33;504.03;;;0.00;99.90;;;;;;5052812;28;21075;-65
2024/01/12 03:09:29;;;;;;;530.25;492.77;;;0.10;99.90;;;;;;5052948;28;20537;-66
2024/01/12 03:11:56;;;;;;;527.03;491.42;;;0.00;99.90;;;;;;5052826;28;20232;-66
2024/01/12 03:14:24;;;;;;;518.85;484.00;;;0.00;99.90;;;;;;5052844;28;20197;-65
2024/01/12 03:16:50;;;;;;;517.20;484.07;;;0.00;99.90;;;;;;5052820;28;20203;-66
2024/01/12 03:19:17;;;;;;;529.85;493.42;;;0.00;99.90;;;;;;5053056;28;20452;-66
2024/01/12 03:21:44;;;;;;;536.00;500.53;;;0.00;99.90;;;;;;5052983;28;20192;-66
2024/01/12 03:24:11;;;;;;;540.60;504.87;;;0.00;99.90;;;;;;5052815;28;20448;-65
2024/01/12 03:26:38;;;;;;;539.60;503.70;;;0.00;99.90;;;;;;5052519;28;20457;-66
2024/01/12 03:29:04;;;;;;;568.17;528.27;;;0.00;99.90;;;;;;5052397;28;20454;-66
2024/01/12 03:31:33;;;;;;;551.20;514.40;;;0.00;99.90;;;;;;5052677;28;20458;-66
2024/01/12 03:34:00;;;;;;;553.75;516.70;;;0.00;99.90;;;;;;5051850;28;20983;-65
2024/01/12 03:36:27;;;;;;;550.20;512.77;;;0.00;99.90;;;;;;5052300;28;20204;-66
2024/01/12 03:38:54;;;;;;;528.80;493.33;;;0.00;99.90;;;;;;5052553;28;20459;-66
2024/01/12 03:41:21;;;;;;;527.03;492.50;;;0.00;99.90;;;;;;5052275;28;20451;-64
2024/01/12 03:43:48;;;;;;;522.20;489.10;;;0.00;99.90;;;;;;5052546;28;20220;-66
2024/01/12 03:46:14;;;;;;;531.40;494.98;;;0.00;99.90;;;;;;5052314;28;20546;-66
2024/01/12 03:48:43;;;;;;;546.63;508.93;;;0.00;99.90;;;;;;5044375;28;20583;-66
2024/01/12 03:51:10;;;;;;;541.45;504.85;;;0.00;99.90;;;;;;5052285;28;20454;-66
2024/01/12 03:53:37;;;;;;;537.53;500.50;;;0.00;99.90;;;;;;5052171;28;20235;-66
2024/01/12 03:56:04;;;;;;;536.50;500.43;;;0.00;99.90;;;;;;5052040;28;20460;-66
2024/01/12 03:58:30;;;;;;;550.93;515.33;;;0.00;99.90;;;;;;5052107;28;20538;-66
2024/01/12 04:00:57;;;;;;;559.83;521.87;;;0.00;99.90;;;;;;5052268;28;20449;-65
2024/01/12 04:03:24;;;;;;;540.93;505.17;;;0.00;99.90;;;;;;5052095;28;20472;-66
2024/01/12 04:05:52;;;;;;;536.13;499.47;;;0.00;99.90;;;;;;5052130;28;20451;-66
2024/01/12 04:08:19;;;;;;;525.20;490.20;;;0.00;99.90;;;;;;5052090;28;20450;-65
2024/01/12 04:10:46;;;;;;;537.53;500.93;;;0.00;99.90;;;;;;5051784;28;20451;-66
2024/01/12 04:13:13;;;;;;;540.83;503.53;;;0.00;99.90;;;;;;5052179;28;20485;-66
2024/01/12 04:15:40;;;;;;;545.17;508.00;;;0.00;99.90;;;;;;5051988;28;20451;-65
2024/01/12 04:18:06;;;;;;;538.43;500.47;;;0.00;99.90;;;;;;5051876;28;20462;-65
2024/01/12 04:20:33;;;;;;;534.00;496.33;;;0.00;99.90;;;;;;5051878;28;20457;-66
2024/01/12 04:23:01;;;;;;;534.30;499.20;;;0.00;99.90;;;;;;5051838;28;20463;-65
2024/01/12 04:25:28;;;;;;;546.50;509.27;;;0.00;99.90;;;;;;5052418;28;20204;-65
2024/01/12 04:27:55;;;;;;;565.10;523.87;;;0.00;99.90;;;;;;5051891;28;20451;-66
2024/01/12 04:30:22;;;;;;;558.70;520.63;;;0.00;99.90;;;;;;5051817;28;20457;-65
2024/01/12 04:32:48;;;;;;;572.93;531.13;;;0.00;99.90;;;;;;5051695;28;20475;-66
2024/01/12 04:35:15;;;;;;;578.23;537.93;;;0.00;99.90;;;;;;5051738;28;20463;-65
2024/01/12 04:37:42;;;;;;;580.37;538.00;;;0.00;99.90;;;;;;5051481;28;20453;-66
2024/01/12 04:40:11;;;;;;;563.77;523.03;;;0.10;99.90;;;;;;5051844;28;20451;-66
2024/01/12 04:42:38;;;;;;;561.35;521.45;;;0.00;99.90;;;;;;5051683;28;20467;-65
2024/01/12 04:45:06;;;;;;;570.27;529.37;;;0.00;99.90;;;;;;5054662;28;20690;-66
2024/01/12 04:47:32;;;;;;;574.35;533.58;;;0.10;99.90;;;;;;5055411;28;20461;-65
2024/01/12 04:49:59;;;;;;;560.33;519.43;;;0.00;99.90;;;;;;5055725;28;20201;-65
2024/01/12 04:52:26;;;;;;;571.53;530.03;;;0.10;99.90;;;;;;5055356;28;20483;-65
2024/01/12 04:54:53;;;;;;;563.10;525.33;;;0.10;99.90;;;;;;5054433;28;20553;-66
2024/01/12 04:57:21;;;;;;;576.00;535.72;;;0.10;99.90;;;;;;5055481;28;20454;-65
2024/01/12 04:59:48;;;;;;;576.90;536.40;;;0.10;99.90;;;;;;5055313;28;20200;-65
2024/01/12 05:02:14;;;;;;;584.20;541.10;;;0.10;99.90;;;;;;5055433;28;20220;-65
2024/01/12 05:04:41;;;;;;;590.28;547.45;;;0.10;99.90;;;;;;5047353;28;20451;-66
2024/01/12 05:07:08;;;;;;;586.40;543.03;;;0.10;99.90;;;;;;5055050;28;20223;-65
2024/01/12 05:09:35;;;;;;;592.83;549.87;;;0.10;99.90;;;;;;5055348;28;20830;-65
2024/01/12 05:12:04;;;;;;;600.78;557.67;;;0.10;99.90;;;;;;5055238;28;20847;-66
2024/01/12 05:14:32;;;;;;;599.63;554.13;;;0.10;99.90;;;;;;5055371;28;20579;-65
2024/01/12 05:16:59;;;;;;;605.17;558.17;;;0.10;99.90;;;;;;5055076;28;20447;-66
2024/01/12 05:19:26;;;;;;;588.43;545.00;;;0.10;99.90;;;;;;5054590;28;20456;-66
2024/01/12 05:21:53;;;;;;;582.57;540.60;;;0.10;99.90;;;;;;5054950;28;20513;-65
2024/01/12 05:24:19;;;;;;;593.80;549.87;;;0.10;99.90;;;;;;5055288;28;20447;-66
2024/01/12 05:26:46;;;;;;;587.60;544.63;;;0.10;99.90;;;;;;5055003;28;20447;-67
2024/01/12 05:29:14;;;;;;;600.33;554.40;;;0.10;99.90;;;;;;5054991;28;20447;-66
2024/01/12 05:31:43;;;;;;;594.80;549.80;;;0.20;99.90;;;;;;5046845;28;20458;-65
2024/01/12 05:34:10;;;;;;;590.43;546.73;;;0.10;99.90;;;;;;5054970;28;20483;-66
2024/01/12 05:36:37;;;;;;;591.60;547.03;;;0.10;99.90;;;;;;5054839;28;20443;-67
2024/01/12 05:39:05;;;;;;;596.17;551.07;;;0.10;99.90;;;;;;5054642;28;20457;-66
2024/01/12 05:41:32;;;;;;;594.20;547.90;;;0.10;99.90;;;;;;5055475;28;20447;-67
2024/01/12 05:43:58;;;;;;;589.83;544.43;;;0.20;99.90;;;;;;5054901;28;20442;-66
2024/01/12 05:46:25;;;;;;;595.23;548.47;;;0.20;99.90;;;;;;5054484;28;20457;-67
2024/01/12 05:48:53;;;;;;;597.57;551.20;;;0.20;99.90;;;;;;5055514;28;20841;-67
2024/01/12 05:51:21;;;;;;;587.83;542.80;;;0.20;99.90;;;;;;5064061;28;20458;-65
2024/01/12 05:53:47;;;;;;;579.83;534.87;;;0.20;99.90;;;;;;5073723;28;20493;-67
2024/01/12 05:56:14;;;;;;;589.33;545.40;;;0.20;99.90;;;;;;5073479;28;20823;-65
2024/01/12 05:58:41;;;;;;;583.77;540.47;;;0.20;99.90;;;;;;5062909;28;20454;-66
2024/01/12 06:01:08;;;;;;;591.57;546.17;;;0.20;99.90;;;;;;5054311;28;20451;-66
2024/01/12 06:03:35;;;;;;;580.57;536.83;;;0.10;99.90;;;;;;5054970;28;20494;-67
2024/01/12 06:06:04;;;;;;;588.83;543.27;;;0.20;99.90;;;;;;5054672;28;20450;-66
2024/01/12 06:08:31;;;;;;;588.00;543.80;;;0.10;99.90;;;;;;5054229;28;20944;-66
2024/01/12 06:10:57;;;;;;;591.17;547.37;;;0.10;99.90;;;;;;5054070;28;20474;-66
2024/01/12 06:13:24;;;;;;;607.47;562.27;;;0.10;99.90;;;;;;5055223;28;20505;-66
2024/01/12 06:15:51;;;;;;;607.75;561.55;;;0.10;99.90;;;;;;5054127;28;20457;-66
2024/01/12 06:18:18;;;;;;;600.23;556.33;;;0.10;99.90;;;;;;5054734;28;20197;-66
2024/01/12 06:20:45;;;;;;;598.53;553.03;;;0.20;99.90;;;;;;5054192;28;20447;-66
2024/01/12 06:23:13;;;;;;;592.37;547.40;;;0.20;99.90;;;;;;5053955;28;20466;-67
2024/01/12 06:25:39;;;;;;;604.55;559.80;;;0.20;99.90;;;;;;5053960;28;20454;-67
2024/01/12 06:28:07;;;;;;;620.03;572.90;;;0.10;99.90;;;;;;5053690;28;20197;-66
2024/01/12 06:30:34;;;;;;;614.07;568.10;;;0.10;99.90;;;;;;5053675;28;20457;-66
2024/01/12 06:33:07;;;;;;;626.13;578.37;;;0.20;99.90;;;;;;5054072;28;20486;-68
2024/01/12 06:35:35;;;;;;;619.73;572.73;;;0.20;99.90;;;;;;5061959;28;20474;-66
2024/01/12 06:38:02;;;;;;;624.00;578.23;;;0.20;99.90;;;;;;5053075;28;20458;-67
2024/01/12 06:40:31;;;;;;;612.10;566.00;;;0.20;99.90;;;;;;5061688;28;20464;-65
2024/01/12 06:42:57;;;;;;;633.23;584.33;;;0.20;99.90;;;;;;5053956;28;20491;-67
2024/01/12 06:45:24;;;;;;;646.70;596.75;;;0.20;99.90;;;;;;5053286;28;20454;-67
2024/01/12 06:47:51;;;;;;;644.60;594.67;;;0.20;99.90;;;;;;5053227;28;20671;-67
2024/01/12 06:50:18;;;;;;;648.25;600.22;;;0.20;99.90;;;;;;5052973;28;20451;-67
2024/01/12 06:52:45;;;;;;;648.97;598.33;;;0.20;99.90;;;;;;5053052;28;20231;-67
2024/01/12 06:55:11;;;;;;;645.10;594.93;;;0.20;99.90;;;;;;5053134;28;20464;-66
2024/01/12 06:57:40;;;;;;;641.55;592.30;;;0.20;99.90;;;;;;5052293;28;20454;-66
2024/01/12 07:00:08;;;;;;;644.97;594.80;;;0.20;99.90;;;;;;5053623;28;20204;-66
2024/01/12 07:02:35;;;;;;;652.87;602.37;;;0.20;99.90;;;;;;5053160;28;21006;-66
2024/01/12 07:05:02;;;;;;;652.43;601.23;;;0.20;99.90;;;;;;5053126;28;20474;-66
2024/01/12 07:07:28;;;;;;;650.17;598.77;;;0.20;99.90;;;;;;5053410;28;20942;-66
2024/01/12 07:09:55;;;;;;;664.57;613.07;;;0.20;99.90;;;;;;5052854;28;20944;-66
2024/01/12 07:12:22;;;;;;;653.60;604.00;;;0.20;99.90;;;;;;5052536;28;21003;-66
2024/01/12 07:14:50;;;;;;;653.03;601.03;;;0.20;99.90;;;;;;5052792;28;21038;-66
2024/01/12 07:17:17;;;;;;;648.63;596.60;;;0.20;99.90;;;;;;5052804;28;20460;-66
2024/01/12 07:19:44;;;;;;;649.13;597.40;;;0.20;99.90;;;;;;5052622;28;20512;-66
2024/01/12 07:22:11;;;;;;;664.23;612.00;;;0.20;99.90;;;;;;5052821;28;20494;-67
2024/01/12 07:24:38;;;;;;;663.17;609.27;;;0.30;99.90;;;;;;5055459;28;21001;-66
2024/01/12 07:27:06;;;;;;;668.47;615.40;;;0.30;99.90;;;;;;5057486;28;20501;-66
2024/01/12 07:29:33;;;;;;;677.17;624.33;;;0.30;99.90;;;;;;5052513;28;20478;-66
2024/01/12 07:32:01;;;;;;;673.43;620.47;;;0.30;99.90;;;;;;5052408;28;20505;-67
2024/01/12 07:34:28;;;;;;;675.27;622.03;;;0.30;99.90;;;;;;5053140;28;20479;-66
2024/01/12 07:36:55;;;;;;;662.27;609.53;;;0.30;99.90;;;;;;5052079;28;20477;-66
2024/01/12 07:39:23;;;;;;;665.87;612.23;;;0.30;99.90;;;;;;5052636;28;20457;-66
2024/01/12 07:41:49;;;;;;;677.07;622.70;;;0.30;99.90;;;;;;5052537;28;20542;-66
2024/01/12 07:44:16;;;;;;;694.33;641.00;;;0.30;99.90;;;;;;5052408;28;20450;-67
2024/01/12 07:46:44;;;;;;;680.73;627.43;;;0.40;99.90;;;;;;5052308;28;20451;-66
2024/01/12 07:49:12;;;;;;;685.40;631.47;;;0.40;99.90;;;;;;5052327;28;20551;-66
2024/01/12 07:51:39;;;;;;;705.03;649.53;;;0.40;99.90;;;;;;5051992;28;20451;-66
2024/01/12 07:54:06;;;;;;;712.50;654.83;;;0.40;99.90;;;;;;5051174;28;20512;-68
2024/01/12 07:56:33;;;;;;;717.30;660.37;;;0.40;99.90;;;;;;5051582;28;20455;-68
2024/01/12 07:59:00;;;;;;;711.00;655.90;;;0.40;99.90;;;;;;5051657;28;20455;-66
2024/01/12 08:01:27;;;;;;;713.00;655.80;;;0.40;99.90;;;;;;5051638;28;20507;-66
2024/01/12 08:03:53;;;;;;;715.37;658.27;;;0.40;99.90;;;;;;5051965;28;20467;-65
2024/01/12 08:06:21;;;;;;;719.30;662.55;;;0.50;99.90;;;;;;5050860;28;20603;-65
2024/01/12 08:08:48;;;;;;;723.13;665.50;;;0.50;99.90;;;;;;5051833;28;20289;-66
2024/01/12 08:11:15;;;;;;;731.97;675.37;;;0.50;99.90;;;;;;5051177;28;20899;-68
2024/01/12 08:13:42;;;;;;;740.07;683.40;;;0.50;99.90;;;;;;5043716;28;20483;-67
2024/01/12 08:16:09;;;;;;;766.58;703.75;;;0.60;99.90;;;;;;5050565;28;20530;-66
2024/01/12 08:18:35;;;;;;;720.90;664.80;;;0.60;99.90;;;;;;5053342;28;20209;-66
2024/01/12 08:21:02;;;;;;;723.80;669.70;;;0.60;99.90;;;;;;5056989;28;20459;-66
2024/01/12 08:23:30;;;;;;;730.97;676.13;;;0.60;99.90;;;;;;5070609;28;20473;-66
2024/01/12 08:25:57;;;;;;;739.43;684.87;;;0.60;99.90;;;;;;5058061;28;20452;-66
2024/01/12 08:28:24;;;;;;;761.80;703.50;;;0.60;99.90;;;;;;5052609;28;20454;-66
2024/01/12 08:30:50;;;;;;;764.10;707.93;;;0.60;99.90;;;;;;5071809;28;20204;-66
2024/01/12 08:33:17;;;;;;;765.83;707.87;;;0.70;99.90;;;;;;5062881;28;20491;-65
2024/01/12 08:35:44;;;;;;;790.63;729.78;;;0.70;99.90;;;;;;5063261;28;20446;-67
2024/01/12 08:38:11;;;;;;;789.80;722.53;;;0.70;99.90;;;;;;5054858;28;20950;-66
2024/01/12 08:40:39;;;;;;;775.83;714.47;;;0.60;99.90;;;;;;5051721;28;20710;-66
2024/01/12 08:43:06;;;;;;;795.60;734.20;;;0.70;99.90;;;;;;5051829;28;20471;-66
2024/01/12 08:45:34;;;;;;;797.70;735.90;;;0.70;99.90;;;;;;5052308;28;20455;-65
2024/01/12 08:48:00;;;;;;;798.97;738.67;;;0.70;99.90;;;;;;5050956;28;20847;-68
2024/01/12 08:50:27;;;;;;;792.33;733.67;;;0.70;99.90;;;;;;5051443;28;20459;-65
2024/01/12 08:52:55;;;;;;;818.60;755.70;;;0.70;99.90;;;;;;5051472;28;20524;-65
2024/01/12 08:55:22;;;;;;;818.90;757.23;;;0.70;99.90;;;;;;5051763;28;20482;-66
2024/01/12 08:57:52;;;;;;;826.85;762.03;;;0.70;99.90;;;;;;5050123;28;20451;-65
2024/01/12 09:00:19;;;;;;;818.90;756.07;;;0.70;99.90;;;;;;5051140;28;20227;-65
2024/01/12 09:02:46;;;;;;;816.87;754.70;;;0.70;99.90;;;;;;5051725;28;20937;-66
2024/01/12 09:05:13;;;;;;;808.07;743.77;;;0.80;99.90;;;;;;5051873;28;20445;-66
2024/01/12 09:07:40;;;;;;;810.47;745.13;;;0.80;99.90;;;;;;5051523;28;20447;-67
2024/01/12 09:10:07;;;;;;;801.70;738.63;;;0.80;99.90;;;;;;5051373;28;20546;-66
2024/01/12 09:12:34;;;;;;;798.07;738.27;;;0.80;99.90;;;;;;5051386;28;20506;-67
2024/01/12 09:15:02;;;;;;;792.23;733.87;;;0.80;99.90;;;;;;5051249;28;20480;-66
2024/01/12 09:17:29;;;;;;;800.27;739.47;;;0.80;99.90;;;;;;5051199;28;20489;-66
2024/01/12 09:19:56;;;;;;;789.30;731.67;;;0.80;99.90;;;;;;5059778;28;20463;-65
2024/01/12 09:22:23;;;;;;;793.90;738.43;;;0.80;99.90;;;;;;5051266;28;20473;-65
2024/01/12 09:24:49;;;;;;;809.07;751.83;;;0.80;99.90;;;;;;5059773;28;20456;-65
2024/01/12 09:27:16;;;;;;;788.20;736.47;;;0.80;99.90;;;;;;5051113;28;20446;-67
2024/01/12 09:29:43;;;;;;;768.30;720.23;;;0.90;99.90;;;;;;5051157;28;20931;-66
2024/01/12 09:32:11;;;;;;;775.80;726.10;;;0.90;99.90;;;;;;5054151;28;20919;-65
2024/01/12 09:34:38;;;;;;;733.33;688.37;;;0.90;99.90;;;;;;5054931;28;20482;-65
2024/01/12 09:37:06;;;;;;;764.33;716.37;;;1.00;99.90;;;;;;5054629;28;20451;-66
2024/01/12 09:39:33;;;;;;;766.03;718.47;;;1.00;99.90;;;;;;5054623;28;20501;-66
2024/01/12 09:42:02;;;;;;;754.73;709.53;;;1.00;99.90;;;;;;5054548;28;20467;-66
2024/01/12 09:44:29;;;;;;;744.23;700.27;;;1.00;99.90;;;;;;5054653;28;20935;-65
2024/01/12 09:46:57;;;;;;;771.83;724.53;;;1.00;99.90;;;;;;5054950;28;20525;-65
2024/01/12 09:49:28;;;;;;;768.23;722.70;;;1.10;99.90;;;;;;5054994;28;20840;-65
2024/01/12 09:51:55;;;;;;;780.13;732.07;;;1.10;99.90;;;;;;5054648;28;20475;-65
2024/01/12 09:54:22;;;;;;;779.43;731.77;;;1.10;99.90;;;;;;5053384;28;20506;-65
2024/01/12 09:56:49;;;;;;;801.07;749.17;;;1.10;99.90;;;;;;5053993;28;20450;-66
2024/01/12 09:59:17;;;;;;;759.17;714.27;;;1.10;99.90;;;;;;5054007;28;20455;-65
2024/01/12 10:01:44;;;;;;;761.90;715.60;;;1.10;99.90;;;;;;5046231;28;20447;-66
2024/01/12 10:04:10;;;;;;;716.93;676.83;;;1.10;99.90;;;;;;5054153;28;20197;-66
2024/01/12 10:06:39;;;;;;;729.27;686.67;;;1.10;99.90;;;;;;5053971;28;20521;-65
2024/01/12 10:09:06;;;;;;;712.43;673.43;;;1.20;99.90;;;;;;5053542;28;20462;-65
2024/01/12 10:11:33;;;;;;;719.37;678.57;;;1.20;99.90;;;;;;5052855;28;20893;-69
2024/01/12 10:14:00;;;;;;;723.27;681.87;;;1.20;99.90;;;;;;5053634;28;20475;-65
2024/01/12 10:16:29;;;;;;;718.80;678.80;;;1.20;99.90;;;;;;5053507;28;20460;-67
2024/01/12 10:18:57;;;;;;;731.20;690.10;;;1.20;99.90;;;;;;5053780;28;20454;-65
2024/01/12 10:21:24;;;;;;;697.77;660.77;;;1.20;99.90;;;;;;5053901;28;20939;-65
2024/01/12 10:23:52;;;;;;;718.37;679.00;;;1.20;99.90;;;;;;5053532;28;20869;-65
2024/01/12 10:26:19;;;;;;;741.83;701.43;;;1.20;99.90;;;;;;5053289;28;20966;-67
2024/01/12 10:28:46;;;;;;;651.73;621.90;;;1.20;99.90;;;;;;5053603;28;20458;-66
2024/01/12 10:31:13;;;;;;;663.70;630.13;;;1.20;99.90;;;;;;5052454;28;20453;-65
2024/01/12 10:33:43;;;;;;;763.88;716.50;;;1.20;99.90;;;;;;5054640;28;20464;-66
2024/01/12 10:36:15;;;;;;;774.83;729.63;;;1.20;99.90;;;;;;5055802;28;20258;-67
2024/01/12 10:38:46;;;;;;;773.47;728.67;;;1.30;99.90;;;;;;5055948;28;20493;-65
2024/01/12 10:41:18;;;;;;;768.03;723.53;;;1.30;99.90;;;;;;5055059;28;20462;-66
2024/01/12 10:43:45;;;;;;;773.73;728.83;;;1.30;99.90;;;;;;5051625;28;20483;-67
2024/01/12 10:46:23;;;;;;;787.67;741.08;;;1.30;99.90;;;;;;5069041;28;20446;-74
2024/01/12 10:49:03;;;;;;;800.83;751.87;;;1.30;99.90;;;;;;5046475;28;20200;-65
2024/01/12 10:51:34;;;;;;;801.23;752.13;;;1.40;99.90;;;;;;5071961;28;20474;-65
2024/01/12 10:54:09;;;;;;;807.73;757.60;;;1.40;99.90;;;;;;5073465;28;20493;-66
2024/01/12 10:56:38;;;;;;;792.80;744.20;;;1.40;99.90;;;;;;5061990;28;20557;-65
2024/01/12 10:59:06;;;;;;;787.20;739.20;;;1.40;99.90;;;;;;5052955;28;20453;-65
2024/01/12 11:01:34;;;;;;;787.50;738.83;;;1.40;99.90;;;;;;5055575;28;20461;-66
2024/01/12 11:04:01;;;;;;;785.97;737.57;;;1.40;99.90;;;;;;5073140;28;20455;-67
2024/01/12 11:06:30;;;;;;;771.83;725.93;;;1.40;99.90;;;;;;5072846;28;20460;-65
2024/01/12 11:08:58;;;;;;;781.73;734.93;;;1.40;99.90;;;;;;5072859;28;20454;-65
2024/01/12 11:11:43;;;;;;;800.53;751.80;;;1.40;99.90;;;;;;5056431;28;20837;-65
2024/01/12 11:14:12;;;;;;;787.90;734.70;;;1.40;99.90;;;;;;5056145;28;20557;-66
2024/01/12 11:16:39;;;;;;;765.50;718.60;;;1.40;99.90;;;;;;5052706;28;20460;-65
2024/01/12 11:19:13;;;;;;;728.10;686.10;;;1.40;99.90;;;;;;5052877;28;20969;-67
2024/01/12 11:21:40;;;;;;;752.37;708.27;;;1.40;99.90;;;;;;5052795;28;20462;-66
2024/01/12 11:24:07;;;;;;;775.93;728.93;;;1.40;99.90;;;;;;5052981;28;20452;-65
2024/01/12 11:26:35;;;;;;;764.00;718.23;;;1.40;99.90;;;;;;5052493;28;20998;-67
2024/01/12 11:29:01;;;;;;;757.03;712.17;;;1.40;99.90;;;;;;5052786;28;20806;-65
2024/01/12 11:31:30;;;;;;;725.63;685.63;;;1.40;99.90;;;;;;5052835;28;20447;-67
2024/01/12 11:34:02;;;;;;;748.63;705.80;;;1.40;99.90;;;;;;5052673;28;20478;-66
2024/01/12 11:36:29;;;;;;;733.57;694.27;;;1.40;99.90;;;;;;5052207;28;21002;-65
2024/01/12 11:39:00;;;;;;;742.57;701.80;;;1.40;99.90;;;;;;5052405;28;20458;-66
2024/01/12 11:41:29;;;;;;;773.20;728.13;;;1.40;99.90;;;;;;5052864;28;20451;-65
2024/01/12 11:43:56;;;;;;;743.10;702.93;;;1.40;99.90;;;;;;5052316;28;20523;-65
2024/01/12 11:46:24;;;;;;;746.90;705.10;;;1.40;99.90;;;;;;5052247;28;21031;-67
2024/01/12 11:48:53;;;;;;;767.40;723.30;;;1.40;99.90;;;;;;5052193;28;20483;-71
2024/01/12 11:51:23;;;;;;;758.87;716.27;;;1.50;99.90;;;;;;5052156;28;20451;-65
2024/01/12 11:53:56;;;;;;;761.83;718.47;;;1.60;99.90;;;;;;5051743;28;20471;-65
2024/01/12 11:56:23;;;;;;;741.83;700.80;;;1.60;99.90;;;;;;5052222;28;20484;-65
2024/01/12 11:58:51;;;;;;;777.33;733.43;;;1.70;99.90;;;;;;5052406;28;20480;-66
2024/01/12 12:01:18;;;;;;;783.40;738.87;;;1.80;99.90;;;;;;5052151;28;20474;-65
2024/01/12 12:03:45;;;;;;;774.83;729.77;;;2.00;99.90;;;;;;5051985;28;20615;-65
2024/01/12 12:06:14;;;;;;;759.17;717.37;;;2.10;99.90;;;;;;5052375;28;20444;-66
2024/01/12 12:08:41;;;;;;;740.10;698.80;;;2.10;99.90;;;;;;5052089;28;20448;-66
2024/01/12 12:11:08;;;;;;;719.87;682.90;;;2.10;99.90;;;;;;5052003;28;20545;-66
2024/01/12 12:13:37;;;;;;;731.73;692.73;;;2.10;99.90;;;;;;5052101;28;20857;-65
2024/01/12 12:16:05;;;;;;;711.53;673.97;;;2.20;99.90;;;;;;5051867;28;20476;-67